sensor_id;sensor_type;location;lat;lon;timestamp;P1;durP1;ratioP1;P2;durP2;ratioP2
55497;SDS011;41357;52.806;18.268;2024-02-21T00:01:21;24.15;;;7.88;;
55497;SDS011;41357;52.806;18.268;2024-02-21T00:03:48;13.80;;;5.75;;
55497;SDS011;41357;52.806;18.268;2024-02-21T00:06:14;15.60;;;4.90;;
55497;SDS011;41357;52.806;18.268;2024-02-21T00:08:40;30.00;;;9.32;;
55497;SDS011;41357;52.806;18.268;2024-02-21T00:11:06;19.80;;;5.88;;
55497;SDS011;41357;52.806;18.268;2024-02-21T00:13:32;20.05;;;6.65;;
55497;SDS011;41357;52.806;18.268;2024-02-21T00:16:00;29.42;;;9.80;;
55497;SDS011;41357;52.806;18.268;2024-02-21T00:18:26;19.50;;;6.93;;
55497;SDS011;41357;52.806;18.268;2024-02-21T00:20:52;18.67;;;5.93;;
55497;SDS011;41357;52.806;18.268;2024-02-21T00:23:18;21.48;;;6.10;;
55497;SDS011;41357;52.806;18.268;2024-02-21T00:25:45;30.30;;;11.32;;
55497;SDS011;41357;52.806;18.268;2024-02-21T00:28:11;63.15;;;19.35;;
55497;SDS011;41357;52.806;18.268;2024-02-21T00:30:37;38.40;;;11.85;;
55497;SDS011;41357;52.806;18.268;2024-02-21T00:33:03;20.38;;;5.78;;
55497;SDS011;41357;52.806;18.268;2024-02-21T00:35:29;28.58;;;8.65;;
55497;SDS011;41357;52.806;18.268;2024-02-21T00:37:55;34.58;;;10.68;;
55497;SDS011;41357;52.806;18.268;2024-02-21T00:40:22;32.70;;;7.75;;
55497;SDS011;41357;52.806;18.268;2024-02-21T00:42:48;20.38;;;7.45;;
55497;SDS011;41357;52.806;18.268;2024-02-21T00:45:14;41.03;;;10.23;;
55497;SDS011;41357;52.806;18.268;2024-02-21T00:47:40;29.98;;;8.43;;
55497;SDS011;41357;52.806;18.268;2024-02-21T00:50:07;29.92;;;9.05;;
55497;SDS011;41357;52.806;18.268;2024-02-21T00:52:34;24.63;;;8.32;;
55497;SDS011;41357;52.806;18.268;2024-02-21T00:55:00;28.15;;;8.32;;
55497;SDS011;41357;52.806;18.268;2024-02-21T00:57:26;18.08;;;5.65;;
55497;SDS011;41357;52.806;18.268;2024-02-21T00:59:53;17.95;;;5.45;;
55497;SDS011;41357;52.806;18.268;2024-02-21T01:02:19;19.50;;;4.82;;
55497;SDS011;41357;52.806;18.268;2024-02-21T01:04:45;30.70;;;5.57;;
55497;SDS011;41357;52.806;18.268;2024-02-21T01:07:11;17.13;;;4.75;;
55497;SDS011;41357;52.806;18.268;2024-02-21T01:09:37;15.93;;;4.78;;
55497;SDS011;41357;52.806;18.268;2024-02-21T01:12:03;23.73;;;6.60;;
55497;SDS011;41357;52.806;18.268;2024-02-21T01:14:29;23.40;;;6.68;;
55497;SDS011;41357;52.806;18.268;2024-02-21T01:16:55;27.08;;;6.55;;
55497;SDS011;41357;52.806;18.268;2024-02-21T01:19:21;15.95;;;5.80;;
55497;SDS011;41357;52.806;18.268;2024-02-21T01:21:48;23.55;;;5.45;;
55497;SDS011;41357;52.806;18.268;2024-02-21T01:24:14;16.13;;;4.03;;
55497;SDS011;41357;52.806;18.268;2024-02-21T01:26:40;16.30;;;4.00;;
55497;SDS011;41357;52.806;18.268;2024-02-21T01:29:06;14.68;;;4.72;;
55497;SDS011;41357;52.806;18.268;2024-02-21T01:31:32;19.48;;;5.00;;
55497;SDS011;41357;52.806;18.268;2024-02-21T01:33:58;19.58;;;4.30;;
55497;SDS011;41357;52.806;18.268;2024-02-21T01:36:25;16.35;;;4.32;;
55497;SDS011;41357;52.806;18.268;2024-02-21T01:38:51;24.02;;;4.72;;
55497;SDS011;41357;52.806;18.268;2024-02-21T01:41:17;18.10;;;4.47;;
55497;SDS011;41357;52.806;18.268;2024-02-21T01:43:43;15.27;;;3.88;;
55497;SDS011;41357;52.806;18.268;2024-02-21T01:46:10;12.50;;;4.60;;
55497;SDS011;41357;52.806;18.268;2024-02-21T01:48:36;19.63;;;4.68;;
55497;SDS011;41357;52.806;18.268;2024-02-21T01:51:02;19.95;;;5.88;;
55497;SDS011;41357;52.806;18.268;2024-02-21T01:53:36;17.48;;;5.15;;
55497;SDS011;41357;52.806;18.268;2024-02-21T01:56:03;18.30;;;3.83;;
55497;SDS011;41357;52.806;18.268;2024-02-21T01:58:31;27.88;;;5.60;;
55497;SDS011;41357;52.806;18.268;2024-02-21T02:00:58;27.08;;;6.38;;
55497;SDS011;41357;52.806;18.268;2024-02-21T02:03:25;32.70;;;7.13;;
55497;SDS011;41357;52.806;18.268;2024-02-21T02:05:52;35.92;;;6.32;;
55497;SDS011;41357;52.806;18.268;2024-02-21T02:08:19;28.73;;;5.63;;
55497;SDS011;41357;52.806;18.268;2024-02-21T02:10:47;32.95;;;7.82;;
55497;SDS011;41357;52.806;18.268;2024-02-21T02:13:13;19.10;;;4.57;;
55497;SDS011;41357;52.806;18.268;2024-02-21T02:15:40;25.75;;;5.60;;
55497;SDS011;41357;52.806;18.268;2024-02-21T02:18:07;16.55;;;5.07;;
55497;SDS011;41357;52.806;18.268;2024-02-21T02:20:33;22.33;;;5.03;;
55497;SDS011;41357;52.806;18.268;2024-02-21T02:23:00;19.13;;;4.35;;
55497;SDS011;41357;52.806;18.268;2024-02-21T02:25:27;25.10;;;6.43;;
55497;SDS011;41357;52.806;18.268;2024-02-21T02:27:53;23.13;;;5.38;;
55497;SDS011;41357;52.806;18.268;2024-02-21T02:30:19;20.10;;;5.28;;
55497;SDS011;41357;52.806;18.268;2024-02-21T02:32:46;12.07;;;3.85;;
55497;SDS011;41357;52.806;18.268;2024-02-21T02:35:12;19.00;;;5.43;;
55497;SDS011;41357;52.806;18.268;2024-02-21T02:37:39;21.65;;;6.00;;
55497;SDS011;41357;52.806;18.268;2024-02-21T02:40:06;27.92;;;5.88;;
55497;SDS011;41357;52.806;18.268;2024-02-21T02:42:32;14.73;;;4.35;;
55497;SDS011;41357;52.806;18.268;2024-02-21T02:44:58;28.02;;;5.03;;
55497;SDS011;41357;52.806;18.268;2024-02-21T02:47:25;23.98;;;5.63;;
55497;SDS011;41357;52.806;18.268;2024-02-21T02:49:51;23.05;;;5.05;;
55497;SDS011;41357;52.806;18.268;2024-02-21T02:52:17;24.60;;;6.38;;
55497;SDS011;41357;52.806;18.268;2024-02-21T02:54:43;22.92;;;7.15;;
55497;SDS011;41357;52.806;18.268;2024-02-21T02:57:10;29.13;;;6.35;;
55497;SDS011;41357;52.806;18.268;2024-02-21T02:59:36;20.95;;;5.13;;
55497;SDS011;41357;52.806;18.268;2024-02-21T03:02:02;20.20;;;5.05;;
55497;SDS011;41357;52.806;18.268;2024-02-21T03:04:28;15.88;;;5.47;;
55497;SDS011;41357;52.806;18.268;2024-02-21T03:06:54;20.10;;;5.55;;
55497;SDS011;41357;52.806;18.268;2024-02-21T03:09:21;15.35;;;5.35;;
55497;SDS011;41357;52.806;18.268;2024-02-21T03:11:47;27.08;;;5.47;;
55497;SDS011;41357;52.806;18.268;2024-02-21T03:14:13;11.88;;;4.65;;
55497;SDS011;41357;52.806;18.268;2024-02-21T03:16:39;17.55;;;5.25;;
55497;SDS011;41357;52.806;18.268;2024-02-21T03:19:05;19.15;;;5.32;;
55497;SDS011;41357;52.806;18.268;2024-02-21T03:21:32;24.95;;;5.43;;
55497;SDS011;41357;52.806;18.268;2024-02-21T03:23:58;23.98;;;6.10;;
55497;SDS011;41357;52.806;18.268;2024-02-21T03:26:24;23.05;;;5.72;;
55497;SDS011;41357;52.806;18.268;2024-02-21T03:28:50;32.78;;;6.80;;
55497;SDS011;41357;52.806;18.268;2024-02-21T03:31:16;25.55;;;7.03;;
55497;SDS011;41357;52.806;18.268;2024-02-21T03:33:43;22.77;;;7.18;;
55497;SDS011;41357;52.806;18.268;2024-02-21T03:36:15;32.05;;;7.68;;
55497;SDS011;41357;52.806;18.268;2024-02-21T03:38:41;20.15;;;5.72;;
55497;SDS011;41357;52.806;18.268;2024-02-21T03:41:07;18.98;;;5.28;;
55497;SDS011;41357;52.806;18.268;2024-02-21T03:43:33;19.58;;;5.07;;
55497;SDS011;41357;52.806;18.268;2024-02-21T03:45:59;13.00;;;4.15;;
55497;SDS011;41357;52.806;18.268;2024-02-21T03:48:26;22.52;;;5.10;;
55497;SDS011;41357;52.806;18.268;2024-02-21T03:50:52;22.05;;;4.88;;
55497;SDS011;41357;52.806;18.268;2024-02-21T03:53:18;18.50;;;5.10;;
55497;SDS011;41357;52.806;18.268;2024-02-21T03:55:44;20.05;;;5.80;;
55497;SDS011;41357;52.806;18.268;2024-02-21T03:58:11;14.77;;;4.28;;
55497;SDS011;41357;52.806;18.268;2024-02-21T04:00:37;18.98;;;4.70;;
55497;SDS011;41357;52.806;18.268;2024-02-21T04:03:04;16.42;;;4.55;;
55497;SDS011;41357;52.806;18.268;2024-02-21T04:05:31;13.73;;;4.30;;
55497;SDS011;41357;52.806;18.268;2024-02-21T04:07:58;27.00;;;5.05;;
55497;SDS011;41357;52.806;18.268;2024-02-21T04:10:24;16.88;;;4.30;;
55497;SDS011;41357;52.806;18.268;2024-02-21T04:12:51;20.27;;;5.45;;
55497;SDS011;41357;52.806;18.268;2024-02-21T04:15:17;19.60;;;5.07;;
55497;SDS011;41357;52.806;18.268;2024-02-21T04:17:44;23.00;;;5.80;;
55497;SDS011;41357;52.806;18.268;2024-02-21T04:20:13;23.58;;;5.05;;
55497;SDS011;41357;52.806;18.268;2024-02-21T04:22:40;24.05;;;4.93;;
55497;SDS011;41357;52.806;18.268;2024-02-21T04:25:06;29.58;;;5.97;;
55497;SDS011;41357;52.806;18.268;2024-02-21T04:27:32;22.45;;;6.60;;
55497;SDS011;41357;52.806;18.268;2024-02-21T04:29:59;17.10;;;5.47;;
55497;SDS011;41357;52.806;18.268;2024-02-21T04:32:25;24.52;;;5.07;;
55497;SDS011;41357;52.806;18.268;2024-02-21T04:34:52;24.02;;;5.60;;
55497;SDS011;41357;52.806;18.268;2024-02-21T04:37:18;18.63;;;5.70;;
55497;SDS011;41357;52.806;18.268;2024-02-21T04:39:46;15.90;;;5.30;;
55497;SDS011;41357;52.806;18.268;2024-02-21T04:42:12;23.42;;;5.78;;
55497;SDS011;41357;52.806;18.268;2024-02-21T04:44:38;19.65;;;5.80;;
55497;SDS011;41357;52.806;18.268;2024-02-21T04:47:04;20.38;;;5.40;;
55497;SDS011;41357;52.806;18.268;2024-02-21T04:49:30;19.83;;;5.30;;
55497;SDS011;41357;52.806;18.268;2024-02-21T04:51:56;23.92;;;5.45;;
55497;SDS011;41357;52.806;18.268;2024-02-21T04:54:23;23.25;;;5.43;;
55497;SDS011;41357;52.806;18.268;2024-02-21T04:56:49;23.67;;;5.53;;
55497;SDS011;41357;52.806;18.268;2024-02-21T04:59:15;21.38;;;6.05;;
55497;SDS011;41357;52.806;18.268;2024-02-21T05:01:41;22.50;;;5.72;;
55497;SDS011;41357;52.806;18.268;2024-02-21T05:04:07;28.75;;;5.90;;
55497;SDS011;41357;52.806;18.268;2024-02-21T05:06:37;23.30;;;6.35;;
55497;SDS011;41357;52.806;18.268;2024-02-21T05:09:04;13.23;;;5.82;;
55497;SDS011;41357;52.806;18.268;2024-02-21T05:11:30;23.10;;;6.43;;
55497;SDS011;41357;52.806;18.268;2024-02-21T05:13:56;26.80;;;6.53;;
55497;SDS011;41357;52.806;18.268;2024-02-21T05:16:22;16.90;;;5.70;;
55497;SDS011;41357;52.806;18.268;2024-02-21T05:18:49;28.17;;;6.93;;
55497;SDS011;41357;52.806;18.268;2024-02-21T05:21:15;26.35;;;6.32;;
55497;SDS011;41357;52.806;18.268;2024-02-21T05:23:41;20.27;;;7.00;;
55497;SDS011;41357;52.806;18.268;2024-02-21T05:26:07;18.90;;;6.30;;
55497;SDS011;41357;52.806;18.268;2024-02-21T05:28:33;17.23;;;7.07;;
55497;SDS011;41357;52.806;18.268;2024-02-21T05:31:00;30.17;;;7.22;;
55497;SDS011;41357;52.806;18.268;2024-02-21T05:33:26;24.80;;;6.78;;
55497;SDS011;41357;52.806;18.268;2024-02-21T05:35:52;24.65;;;7.30;;
55497;SDS011;41357;52.806;18.268;2024-02-21T05:38:18;20.15;;;6.70;;
55497;SDS011;41357;52.806;18.268;2024-02-21T05:40:44;28.05;;;7.93;;
55497;SDS011;41357;52.806;18.268;2024-02-21T05:43:11;23.38;;;6.95;;
55497;SDS011;41357;52.806;18.268;2024-02-21T05:45:37;31.95;;;9.30;;
55497;SDS011;41357;52.806;18.268;2024-02-21T05:48:03;36.83;;;10.25;;
55497;SDS011;41357;52.806;18.268;2024-02-21T05:50:29;32.38;;;9.13;;
55497;SDS011;41357;52.806;18.268;2024-02-21T05:52:57;25.92;;;8.77;;
55497;SDS011;41357;52.806;18.268;2024-02-21T05:55:23;21.95;;;9.18;;
55497;SDS011;41357;52.806;18.268;2024-02-21T05:57:53;30.23;;;8.23;;
55497;SDS011;41357;52.806;18.268;2024-02-21T06:00:20;19.52;;;7.38;;
55497;SDS011;41357;52.806;18.268;2024-02-21T06:02:46;27.73;;;8.52;;
55497;SDS011;41357;52.806;18.268;2024-02-21T06:05:12;34.20;;;9.50;;
55497;SDS011;41357;52.806;18.268;2024-02-21T06:07:38;22.15;;;8.43;;
55497;SDS011;41357;52.806;18.268;2024-02-21T06:10:05;40.40;;;9.55;;
55497;SDS011;41357;52.806;18.268;2024-02-21T06:12:31;27.80;;;9.57;;
55497;SDS011;41357;52.806;18.268;2024-02-21T06:14:57;27.00;;;8.90;;
55497;SDS011;41357;52.806;18.268;2024-02-21T06:17:23;27.65;;;8.45;;
55497;SDS011;41357;52.806;18.268;2024-02-21T06:19:49;23.73;;;8.80;;
55497;SDS011;41357;52.806;18.268;2024-02-21T06:22:15;29.00;;;8.82;;
55497;SDS011;41357;52.806;18.268;2024-02-21T06:24:42;27.83;;;8.45;;
55497;SDS011;41357;52.806;18.268;2024-02-21T06:27:10;29.67;;;8.70;;
55497;SDS011;41357;52.806;18.268;2024-02-21T06:29:36;24.58;;;8.90;;
55497;SDS011;41357;52.806;18.268;2024-02-21T06:32:03;30.00;;;10.43;;
55497;SDS011;41357;52.806;18.268;2024-02-21T06:34:29;33.70;;;9.98;;
55497;SDS011;41357;52.806;18.268;2024-02-21T06:36:55;21.40;;;8.52;;
55497;SDS011;41357;52.806;18.268;2024-02-21T06:39:21;26.73;;;8.40;;
55497;SDS011;41357;52.806;18.268;2024-02-21T06:41:48;25.67;;;9.52;;
55497;SDS011;41357;52.806;18.268;2024-02-21T06:44:18;24.67;;;9.53;;
55497;SDS011;41357;52.806;18.268;2024-02-21T06:46:45;39.38;;;9.95;;
55497;SDS011;41357;52.806;18.268;2024-02-21T06:49:11;29.35;;;8.88;;
55497;SDS011;41357;52.806;18.268;2024-02-21T06:51:43;37.20;;;7.25;;
55497;SDS011;41357;52.806;18.268;2024-02-21T06:54:09;25.58;;;8.43;;
55497;SDS011;41357;52.806;18.268;2024-02-21T06:56:36;19.90;;;8.63;;
55497;SDS011;41357;52.806;18.268;2024-02-21T06:59:02;20.20;;;7.32;;
55497;SDS011;41357;52.806;18.268;2024-02-21T07:01:31;31.63;;;8.95;;
55497;SDS011;41357;52.806;18.268;2024-02-21T07:03:58;27.13;;;9.07;;
55497;SDS011;41357;52.806;18.268;2024-02-21T07:06:24;29.30;;;10.13;;
55497;SDS011;41357;52.806;18.268;2024-02-21T07:08:51;32.38;;;11.25;;
55497;SDS011;41357;52.806;18.268;2024-02-21T07:11:17;25.42;;;9.80;;
55497;SDS011;41357;52.806;18.268;2024-02-21T07:13:43;23.83;;;8.30;;
55497;SDS011;41357;52.806;18.268;2024-02-21T07:16:09;33.63;;;8.07;;
55497;SDS011;41357;52.806;18.268;2024-02-21T07:18:36;17.85;;;6.72;;
55497;SDS011;41357;52.806;18.268;2024-02-21T07:21:02;25.33;;;7.78;;
55497;SDS011;41357;52.806;18.268;2024-02-21T07:23:29;21.25;;;7.05;;
55497;SDS011;41357;52.806;18.268;2024-02-21T07:25:55;23.63;;;8.00;;
55497;SDS011;41357;52.806;18.268;2024-02-21T07:28:21;22.10;;;6.13;;
55497;SDS011;41357;52.806;18.268;2024-02-21T07:30:47;33.88;;;8.23;;
55497;SDS011;41357;52.806;18.268;2024-02-21T07:33:13;24.05;;;7.78;;
55497;SDS011;41357;52.806;18.268;2024-02-21T07:35:39;29.40;;;9.35;;
55497;SDS011;41357;52.806;18.268;2024-02-21T07:38:07;18.25;;;7.13;;
55497;SDS011;41357;52.806;18.268;2024-02-21T07:40:37;25.83;;;9.80;;
55497;SDS011;41357;52.806;18.268;2024-02-21T07:43:04;24.77;;;7.75;;
55497;SDS011;41357;52.806;18.268;2024-02-21T07:45:30;25.35;;;8.43;;
55497;SDS011;41357;52.806;18.268;2024-02-21T07:47:56;28.75;;;9.52;;
55497;SDS011;41357;52.806;18.268;2024-02-21T07:50:22;21.05;;;9.32;;
55497;SDS011;41357;52.806;18.268;2024-02-21T07:52:48;33.17;;;9.65;;
55497;SDS011;41357;52.806;18.268;2024-02-21T07:55:17;28.83;;;8.23;;
55497;SDS011;41357;52.806;18.268;2024-02-21T07:57:43;15.35;;;7.95;;
55497;SDS011;41357;52.806;18.268;2024-02-21T08:00:10;18.75;;;8.88;;
55497;SDS011;41357;52.806;18.268;2024-02-21T08:02:42;28.65;;;8.75;;
55497;SDS011;41357;52.806;18.268;2024-02-21T08:05:09;27.75;;;9.93;;
55497;SDS011;41357;52.806;18.268;2024-02-21T08:07:37;31.30;;;10.02;;
55497;SDS011;41357;52.806;18.268;2024-02-21T08:10:03;32.83;;;12.65;;
55497;SDS011;41357;52.806;18.268;2024-02-21T08:12:32;36.88;;;9.57;;
55497;SDS011;41357;52.806;18.268;2024-02-21T08:14:58;26.05;;;11.05;;
55497;SDS011;41357;52.806;18.268;2024-02-21T08:17:24;27.08;;;11.52;;
55497;SDS011;41357;52.806;18.268;2024-02-21T08:19:51;28.35;;;9.75;;
55497;SDS011;41357;52.806;18.268;2024-02-21T08:22:17;27.05;;;10.40;;
55497;SDS011;41357;52.806;18.268;2024-02-21T08:24:44;28.83;;;11.52;;
55497;SDS011;41357;52.806;18.268;2024-02-21T08:27:10;30.52;;;12.57;;
55497;SDS011;41357;52.806;18.268;2024-02-21T08:29:36;39.78;;;14.13;;
55497;SDS011;41357;52.806;18.268;2024-02-21T08:32:02;36.00;;;12.77;;
55497;SDS011;41357;52.806;18.268;2024-02-21T08:34:28;34.63;;;12.93;;
55497;SDS011;41357;52.806;18.268;2024-02-21T08:36:57;30.15;;;11.98;;
55497;SDS011;41357;52.806;18.268;2024-02-21T08:39:23;29.40;;;10.13;;
55497;SDS011;41357;52.806;18.268;2024-02-21T08:41:51;28.05;;;10.38;;
55497;SDS011;41357;52.806;18.268;2024-02-21T08:44:17;24.40;;;8.93;;
55497;SDS011;41357;52.806;18.268;2024-02-21T08:46:43;25.55;;;10.80;;
55497;SDS011;41357;52.806;18.268;2024-02-21T08:49:10;20.35;;;10.18;;
55497;SDS011;41357;52.806;18.268;2024-02-21T08:51:36;28.77;;;10.85;;
55497;SDS011;41357;52.806;18.268;2024-02-21T08:54:02;27.33;;;9.82;;
55497;SDS011;41357;52.806;18.268;2024-02-21T08:56:29;44.65;;;16.83;;
55497;SDS011;41357;52.806;18.268;2024-02-21T08:58:56;33.40;;;12.68;;
55497;SDS011;41357;52.806;18.268;2024-02-21T09:01:23;28.63;;;12.00;;
55497;SDS011;41357;52.806;18.268;2024-02-21T09:03:50;30.73;;;9.27;;
55497;SDS011;41357;52.806;18.268;2024-02-21T09:06:18;44.25;;;10.65;;
55497;SDS011;41357;52.806;18.268;2024-02-21T09:08:45;28.92;;;9.25;;
55497;SDS011;41357;52.806;18.268;2024-02-21T09:11:11;29.10;;;9.93;;
55497;SDS011;41357;52.806;18.268;2024-02-21T09:13:37;58.38;;;16.10;;
55497;SDS011;41357;52.806;18.268;2024-02-21T09:16:04;42.13;;;12.60;;
55497;SDS011;41357;52.806;18.268;2024-02-21T09:18:31;26.85;;;9.30;;
55497;SDS011;41357;52.806;18.268;2024-02-21T09:20:57;25.92;;;8.80;;
55497;SDS011;41357;52.806;18.268;2024-02-21T09:23:26;38.08;;;10.15;;
55497;SDS011;41357;52.806;18.268;2024-02-21T09:25:52;28.95;;;9.30;;
55497;SDS011;41357;52.806;18.268;2024-02-21T09:28:20;32.10;;;10.18;;
55497;SDS011;41357;52.806;18.268;2024-02-21T09:30:47;37.38;;;11.55;;
55497;SDS011;41357;52.806;18.268;2024-02-21T09:33:13;22.63;;;9.30;;
55497;SDS011;41357;52.806;18.268;2024-02-21T09:35:40;25.30;;;9.70;;
55497;SDS011;41357;52.806;18.268;2024-02-21T09:38:06;22.55;;;9.52;;
55497;SDS011;41357;52.806;18.268;2024-02-21T09:40:32;21.80;;;9.02;;
55497;SDS011;41357;52.806;18.268;2024-02-21T09:43:01;23.95;;;10.50;;
55497;SDS011;41357;52.806;18.268;2024-02-21T09:45:32;19.58;;;10.48;;
55497;SDS011;41357;52.806;18.268;2024-02-21T09:50:26;24.17;;;8.48;;
55497;SDS011;41357;52.806;18.268;2024-02-21T09:52:52;28.30;;;10.18;;
55497;SDS011;41357;52.806;18.268;2024-02-21T09:55:20;25.10;;;9.88;;
55497;SDS011;41357;52.806;18.268;2024-02-21T09:57:47;26.98;;;9.65;;
55497;SDS011;41357;52.806;18.268;2024-02-21T10:00:14;28.98;;;10.35;;
55497;SDS011;41357;52.806;18.268;2024-02-21T10:02:47;23.52;;;9.73;;
55497;SDS011;41357;52.806;18.268;2024-02-21T10:05:14;18.63;;;9.68;;
55497;SDS011;41357;52.806;18.268;2024-02-21T10:07:40;23.58;;;8.75;;
55497;SDS011;41357;52.806;18.268;2024-02-21T10:10:07;27.70;;;12.43;;
55497;SDS011;41357;52.806;18.268;2024-02-21T10:12:33;19.42;;;8.93;;
55497;SDS011;41357;52.806;18.268;2024-02-21T10:15:00;24.85;;;9.60;;
55497;SDS011;41357;52.806;18.268;2024-02-21T10:17:26;34.22;;;11.25;;
55497;SDS011;41357;52.806;18.268;2024-02-21T10:19:52;26.50;;;10.55;;
55497;SDS011;41357;52.806;18.268;2024-02-21T10:22:18;24.38;;;10.40;;
55497;SDS011;41357;52.806;18.268;2024-02-21T10:24:46;19.02;;;10.88;;
55497;SDS011;41357;52.806;18.268;2024-02-21T10:27:12;23.98;;;10.18;;
55497;SDS011;41357;52.806;18.268;2024-02-21T10:29:38;25.35;;;11.05;;
55497;SDS011;41357;52.806;18.268;2024-02-21T10:32:08;25.00;;;10.60;;
55497;SDS011;41357;52.806;18.268;2024-02-21T10:34:36;18.73;;;9.68;;
55497;SDS011;41357;52.806;18.268;2024-02-21T10:37:03;30.35;;;10.15;;
55497;SDS011;41357;52.806;18.268;2024-02-21T10:39:33;24.10;;;10.45;;
55497;SDS011;41357;52.806;18.268;2024-02-21T10:42:00;25.02;;;9.80;;
55497;SDS011;41357;52.806;18.268;2024-02-21T10:44:29;25.70;;;11.50;;
55497;SDS011;41357;52.806;18.268;2024-02-21T10:46:56;28.65;;;10.70;;
55497;SDS011;41357;52.806;18.268;2024-02-21T10:49:23;20.08;;;10.57;;
55497;SDS011;41357;52.806;18.268;2024-02-21T10:51:50;23.73;;;10.70;;
55497;SDS011;41357;52.806;18.268;2024-02-21T10:56:58;21.33;;;8.68;;
55497;SDS011;41357;52.806;18.268;2024-02-21T10:59:26;26.85;;;10.38;;
55497;SDS011;41357;52.806;18.268;2024-02-21T11:01:54;21.38;;;9.75;;
55497;SDS011;41357;52.806;18.268;2024-02-21T11:04:20;18.55;;;8.52;;
55497;SDS011;41357;52.806;18.268;2024-02-21T11:06:47;20.05;;;9.20;;
55497;SDS011;41357;52.806;18.268;2024-02-21T11:09:14;25.25;;;8.43;;
55497;SDS011;41357;52.806;18.268;2024-02-21T11:11:41;21.90;;;8.35;;
55497;SDS011;41357;52.806;18.268;2024-02-21T11:14:11;22.10;;;10.63;;
55497;SDS011;41357;52.806;18.268;2024-02-21T11:16:42;24.25;;;9.40;;
55497;SDS011;41357;52.806;18.268;2024-02-21T11:21:44;18.73;;;8.30;;
55497;SDS011;41357;52.806;18.268;2024-02-21T11:24:10;20.15;;;8.88;;
55497;SDS011;41357;52.806;18.268;2024-02-21T11:26:37;29.75;;;10.55;;
55497;SDS011;41357;52.806;18.268;2024-02-21T11:29:03;24.60;;;10.93;;
55497;SDS011;41357;52.806;18.268;2024-02-21T11:31:40;23.98;;;10.18;;
55497;SDS011;41357;52.806;18.268;2024-02-21T11:34:10;16.10;;;8.57;;
55497;SDS011;41357;52.806;18.268;2024-02-21T11:36:39;17.25;;;9.40;;
55497;SDS011;41357;52.806;18.268;2024-02-21T11:39:12;24.90;;;10.13;;
55497;SDS011;41357;52.806;18.268;2024-02-21T11:41:38;19.60;;;9.55;;
55497;SDS011;41357;52.806;18.268;2024-02-21T11:44:04;23.15;;;9.40;;
55497;SDS011;41357;52.806;18.268;2024-02-21T11:46:31;26.30;;;9.23;;
55497;SDS011;41357;52.806;18.268;2024-02-21T11:48:57;27.20;;;10.60;;
55497;SDS011;41357;52.806;18.268;2024-02-21T11:51:26;26.13;;;10.23;;
55497;SDS011;41357;52.806;18.268;2024-02-21T11:53:53;20.08;;;9.80;;
55497;SDS011;41357;52.806;18.268;2024-02-21T11:56:19;26.80;;;10.50;;
55497;SDS011;41357;52.806;18.268;2024-02-21T11:58:46;20.50;;;10.95;;
55497;SDS011;41357;52.806;18.268;2024-02-21T12:01:13;28.80;;;11.35;;
55497;SDS011;41357;52.806;18.268;2024-02-21T12:03:39;22.17;;;10.02;;
55497;SDS011;41357;52.806;18.268;2024-02-21T12:06:06;21.42;;;9.55;;
55497;SDS011;41357;52.806;18.268;2024-02-21T12:08:42;25.30;;;12.02;;
55497;SDS011;41357;52.806;18.268;2024-02-21T12:16:31;25.42;;;11.60;;
55497;SDS011;41357;52.806;18.268;2024-02-21T12:19:01;23.60;;;9.82;;
55497;SDS011;41357;52.806;18.268;2024-02-21T12:21:34;27.90;;;8.90;;
55497;SDS011;41357;52.806;18.268;2024-02-21T12:24:13;22.48;;;9.25;;
55497;SDS011;41357;52.806;18.268;2024-02-21T12:26:40;21.95;;;9.00;;
55497;SDS011;41357;52.806;18.268;2024-02-21T12:29:07;18.45;;;8.05;;
55497;SDS011;41357;52.806;18.268;2024-02-21T12:31:39;18.33;;;8.85;;
55497;SDS011;41357;52.806;18.268;2024-02-21T12:34:05;14.40;;;6.82;;
55497;SDS011;41357;52.806;18.268;2024-02-21T12:36:31;25.40;;;9.88;;
55497;SDS011;41357;52.806;18.268;2024-02-21T12:38:58;32.45;;;11.05;;
55497;SDS011;41357;52.806;18.268;2024-02-21T12:41:25;21.08;;;9.10;;
55497;SDS011;41357;52.806;18.268;2024-02-21T12:43:52;21.17;;;10.13;;
55497;SDS011;41357;52.806;18.268;2024-02-21T12:46:18;26.17;;;10.85;;
55497;SDS011;41357;52.806;18.268;2024-02-21T12:48:44;27.23;;;12.65;;
55497;SDS011;41357;52.806;18.268;2024-02-21T12:51:11;19.73;;;9.07;;
55497;SDS011;41357;52.806;18.268;2024-02-21T12:53:37;26.08;;;11.52;;
55497;SDS011;41357;52.806;18.268;2024-02-21T12:56:04;24.80;;;10.02;;
55497;SDS011;41357;52.806;18.268;2024-02-21T12:58:32;22.17;;;10.30;;
55497;SDS011;41357;52.806;18.268;2024-02-21T13:00:59;21.25;;;10.10;;
55497;SDS011;41357;52.806;18.268;2024-02-21T13:03:25;18.52;;;8.70;;
55497;SDS011;41357;52.806;18.268;2024-02-21T13:05:51;18.25;;;8.07;;
55497;SDS011;41357;52.806;18.268;2024-02-21T13:08:18;19.25;;;8.48;;
55497;SDS011;41357;52.806;18.268;2024-02-21T13:10:47;19.15;;;9.07;;
55497;SDS011;41357;52.806;18.268;2024-02-21T13:13:14;15.68;;;8.40;;
55497;SDS011;41357;52.806;18.268;2024-02-21T13:15:40;19.00;;;8.57;;
55497;SDS011;41357;52.806;18.268;2024-02-21T13:18:08;22.95;;;9.95;;
55497;SDS011;41357;52.806;18.268;2024-02-21T13:20:34;20.65;;;9.70;;
55497;SDS011;41357;52.806;18.268;2024-02-21T13:23:00;25.98;;;10.23;;
55497;SDS011;41357;52.806;18.268;2024-02-21T13:25:26;22.27;;;9.77;;
55497;SDS011;41357;52.806;18.268;2024-02-21T13:27:52;15.52;;;8.77;;
55497;SDS011;41357;52.806;18.268;2024-02-21T13:30:18;20.30;;;10.57;;
55497;SDS011;41357;52.806;18.268;2024-02-21T13:32:45;26.45;;;11.63;;
55497;SDS011;41357;52.806;18.268;2024-02-21T13:35:11;24.17;;;10.40;;
55497;SDS011;41357;52.806;18.268;2024-02-21T13:37:38;21.92;;;10.77;;
55497;SDS011;41357;52.806;18.268;2024-02-21T13:40:05;24.60;;;9.68;;
55497;SDS011;41357;52.806;18.268;2024-02-21T13:42:31;31.50;;;12.32;;
55497;SDS011;41357;52.806;18.268;2024-02-21T13:44:57;29.33;;;11.60;;
55497;SDS011;41357;52.806;18.268;2024-02-21T13:47:23;23.08;;;10.95;;
55497;SDS011;41357;52.806;18.268;2024-02-21T13:49:49;27.33;;;11.27;;
55497;SDS011;41357;52.806;18.268;2024-02-21T13:52:15;23.17;;;10.70;;
55497;SDS011;41357;52.806;18.268;2024-02-21T13:54:42;31.63;;;10.13;;
55497;SDS011;41357;52.806;18.268;2024-02-21T13:57:08;24.40;;;9.82;;
55497;SDS011;41357;52.806;18.268;2024-02-21T13:59:34;22.00;;;9.90;;
55497;SDS011;41357;52.806;18.268;2024-02-21T14:02:01;34.95;;;11.35;;
55497;SDS011;41357;52.806;18.268;2024-02-21T14:04:27;25.80;;;10.40;;
55497;SDS011;41357;52.806;18.268;2024-02-21T14:06:55;21.23;;;10.32;;
55497;SDS011;41357;52.806;18.268;2024-02-21T14:09:21;26.08;;;11.23;;
55497;SDS011;41357;52.806;18.268;2024-02-21T14:11:47;29.83;;;11.35;;
55497;SDS011;41357;52.806;18.268;2024-02-21T14:14:13;25.15;;;10.77;;
55497;SDS011;41357;52.806;18.268;2024-02-21T14:16:40;25.35;;;11.85;;
55497;SDS011;41357;52.806;18.268;2024-02-21T14:19:06;27.73;;;14.18;;
55497;SDS011;41357;52.806;18.268;2024-02-21T14:21:34;28.65;;;13.85;;
55497;SDS011;41357;52.806;18.268;2024-02-21T14:24:04;22.90;;;11.10;;
55497;SDS011;41357;52.806;18.268;2024-02-21T14:26:30;19.77;;;8.40;;
55497;SDS011;41357;52.806;18.268;2024-02-21T14:28:57;27.50;;;11.52;;